Time;durP1;ratioP1;P1;durP2;ratioP2;P2;SDS_P1;SDS_P2;PMS_P1;PMS_P2;Temp;Humidity;BMP_temperature;BMP_pressure;BME280_temperature;BME280_humidity;BME280_pressure;Samples;Min_cycle;Max_cycle;Signal;HPM_P1;HPM_P2
2023/03/03 00:02:24;;;;;;;9.68;5.28;;;2.90;99.90;;;;;;5032308;28;20689;-70
2023/03/03 00:04:49;;;;;;;12.30;7.28;;;2.80;99.90;;;;;;5031947;28;20057;-69
2023/03/03 00:07:21;;;;;;;10.32;6.82;;;2.70;99.90;;;;;;5038226;28;20062;-61
2023/03/03 00:09:47;;;;;;;9.80;6.35;;;2.70;99.90;;;;;;5049057;28;20147;-61
2023/03/03 00:12:19;;;;;;;8.68;5.90;;;2.70;99.90;;;;;;5045563;28;20040;-61
2023/03/03 00:14:45;;;;;;;11.77;6.25;;;2.60;99.90;;;;;;5044656;28;20036;-62
2023/03/03 00:17:20;;;;;;;9.45;6.43;;;2.50;99.90;;;;;;5046770;28;20358;-61
2023/03/03 00:19:46;;;;;;;10.93;6.45;;;2.40;99.90;;;;;;5048045;28;20028;-61
2023/03/03 00:22:35;;;;;;;11.18;7.50;;;2.40;99.90;;;;;;5034717;28;20051;-61
2023/03/03 00:25:28;;;;;;;11.15;7.15;;;2.40;99.90;;;;;;5053736;28;20051;-61
2023/03/03 00:27:55;;;;;;;13.00;9.00;;;2.60;99.90;;;;;;5047596;28;20110;-70
2023/03/03 00:30:25;;;;;;;9.68;5.90;;;2.60;99.90;;;;;;5033441;28;20032;-70
2023/03/03 00:32:52;;;;;;;6.40;4.22;;;2.60;99.90;;;;;;5042176;28;20044;-71
2023/03/03 00:35:29;;;;;;;10.32;5.07;;;2.50;99.90;;;;;;5031956;28;20090;-71
2023/03/03 00:38:11;;;;;;;6.85;4.47;;;2.30;99.90;;;;;;5030978;28;20076;-70
2023/03/03 00:40:38;;;;;;;8.10;5.20;;;2.20;99.90;;;;;;5048855;28;20040;-71
2023/03/03 00:43:22;;;;;;;8.10;4.75;;;2.20;99.90;;;;;;5045029;28;20492;-71
2023/03/03 00:45:55;;;;;;;9.60;6.18;;;2.10;99.90;;;;;;5047383;28;20068;-62
2023/03/03 00:48:26;;;;;;;10.15;5.30;;;2.10;99.90;;;;;;5034387;28;20111;-62
2023/03/03 00:50:54;;;;;;;8.98;5.60;;;2.20;99.90;;;;;;5041123;28;20128;-61
2023/03/03 00:53:22;;;;;;;7.38;4.35;;;2.20;99.90;;;;;;5044287;28;20068;-61
2023/03/03 00:55:49;;;;;;;7.35;4.68;;;2.20;99.90;;;;;;5042290;28;20364;-61
2023/03/03 00:58:15;;;;;;;8.93;3.80;;;2.10;99.90;;;;;;5030203;28;20025;-61
2023/03/03 01:00:41;;;;;;;5.60;3.90;;;2.10;99.90;;;;;;5037180;28;20116;-61
2023/03/03 01:03:11;;;;;;;6.47;4.30;;;2.10;99.90;;;;;;5042739;28;20033;-62
2023/03/03 01:05:36;;;;;;;7.20;4.78;;;2.10;99.90;;;;;;5041423;28;20123;-70
2023/03/03 01:08:03;;;;;;;5.82;4.20;;;2.10;99.90;;;;;;5036584;28;20579;-70
2023/03/03 01:10:31;;;;;;;6.22;4.20;;;2.00;99.90;;;;;;5039304;28;20626;-70
2023/03/03 01:12:57;;;;;;;5.78;4.30;;;2.00;99.90;;;;;;5041817;28;20059;-69
2023/03/03 01:15:23;;;;;;;8.10;5.00;;;2.00;99.90;;;;;;5045847;28;20390;-70
2023/03/03 01:17:49;;;;;;;7.85;5.20;;;2.00;99.90;;;;;;5046511;28;20032;-70
2023/03/03 01:20:16;;;;;;;7.50;5.35;;;2.10;99.90;;;;;;5047046;28;20060;-72
2023/03/03 01:22:42;;;;;;;8.40;5.70;;;2.00;99.90;;;;;;5034099;28;20132;-62
2023/03/03 01:25:08;;;;;;;8.88;6.63;;;2.00;99.90;;;;;;5046732;28;20041;-63
2023/03/03 01:27:35;;;;;;;6.18;4.30;;;2.00;99.90;;;;;;5044764;28;20047;-63
2023/03/03 01:30:03;;;;;;;5.95;4.25;;;2.00;99.90;;;;;;5049450;28;20030;-63
2023/03/03 01:32:28;;;;;;;6.47;4.00;;;2.00;99.90;;;;;;5040937;28;20047;-63
2023/03/03 01:34:54;;;;;;;6.80;4.57;;;1.80;99.90;;;;;;5047439;28;20032;-63
2023/03/03 01:37:20;;;;;;;5.55;4.03;;;1.80;99.90;;;;;;5040326;28;20036;-62
2023/03/03 01:39:51;;;;;;;7.70;4.35;;;1.70;99.90;;;;;;5038708;28;20429;-72
2023/03/03 01:42:17;;;;;;;8.00;5.43;;;1.60;99.90;;;;;;5041541;28;20139;-71
2023/03/03 01:44:43;;;;;;;6.15;4.28;;;1.60;99.90;;;;;;5043776;28;20048;-72
2023/03/03 01:47:18;;;;;;;6.60;4.63;;;1.70;99.90;;;;;;5033093;28;20032;-72
2023/03/03 01:49:50;;;;;;;6.97;4.60;;;1.70;99.90;;;;;;5042037;28;20052;-72
2023/03/03 01:52:39;;;;;;;6.25;4.68;;;1.70;99.90;;;;;;5037470;28;20040;-72
2023/03/03 01:55:19;;;;;;;8.60;4.75;;;1.80;99.90;;;;;;5040602;28;20037;-71
2023/03/03 01:58:22;;;;;;;7.20;5.45;;;1.80;99.90;;;;;;5040587;28;20036;-71
2023/03/03 02:00:52;;;;;;;13.50;9.02;;;1.90;99.90;;;;;;4939580;28;20723;-62
2023/03/03 02:03:21;;;;;;;17.00;11.18;;;1.80;99.90;;;;;;5014645;28;20579;-62
2023/03/03 02:05:48;;;;;;;13.05;4.60;;;1.80;99.90;;;;;;5023679;28;20041;-62
2023/03/03 02:08:17;;;;;;;5.78;4.18;;;1.80;99.90;;;;;;5043370;28;20163;-70
2023/03/03 02:10:45;;;;;;;6.05;4.13;;;1.60;99.90;;;;;;5019365;28;20056;-70
2023/03/03 02:13:11;;;;;;;6.35;4.07;;;1.50;99.90;;;;;;5049555;28;20143;-69
2023/03/03 02:15:37;;;;;;;6.38;4.10;;;1.40;99.90;;;;;;5044861;28;20029;-70
2023/03/03 02:18:15;;;;;;;6.28;4.07;;;1.40;99.90;;;;;;5055052;28;20025;-69
2023/03/03 02:21:03;;;;;;;7.10;4.35;;;1.40;99.90;;;;;;5051434;28;20171;-68
2023/03/03 02:23:32;;;;;;;6.60;4.78;;;1.40;99.90;;;;;;5054888;28;20051;-68
2023/03/03 02:25:59;;;;;;;6.22;4.45;;;1.40;99.90;;;;;;5043728;28;20052;-81
2023/03/03 02:28:30;;;;;;;8.30;4.88;;;1.30;99.90;;;;;;5045464;28;20541;-84
2023/03/03 02:30:58;;;;;;;9.57;4.43;;;1.50;99.90;;;;;;5049517;28;20028;-81
2023/03/03 02:33:24;;;;;;;6.95;4.20;;;1.50;99.90;;;;;;5036719;28;20102;-81
2023/03/03 02:35:51;;;;;;;8.30;4.43;;;1.50;99.90;;;;;;5048106;28;20681;-78
2023/03/03 02:38:24;;;;;;;7.35;5.00;;;1.50;99.90;;;;;;5042893;28;20055;-76
2023/03/03 02:41:21;;;;;;;6.82;4.97;;;1.40;99.90;;;;;;5038819;28;20085;-80
2023/03/03 02:43:54;;;;;;;10.05;5.40;;;1.40;99.90;;;;;;5034277;28;20133;-79
2023/03/03 02:46:20;;;;;;;7.35;4.45;;;1.40;99.90;;;;;;5049729;28;20040;-80
2023/03/03 02:48:45;;;;;;;6.25;4.55;;;1.30;99.90;;;;;;5041212;28;20035;-79
2023/03/03 02:51:11;;;;;;;7.05;4.82;;;1.30;99.90;;;;;;5043464;28;20111;-79
2023/03/03 02:53:37;;;;;;;7.07;4.63;;;1.20;99.90;;;;;;5039726;28;20773;-81
2023/03/03 02:56:03;;;;;;;8.73;5.07;;;1.30;99.90;;;;;;5036034;28;20746;-74
2023/03/03 02:58:29;;;;;;;8.35;5.28;;;1.40;99.90;;;;;;5014187;28;20520;-78
2023/03/03 03:00:56;;;;;;;8.85;6.05;;;1.40;99.90;;;;;;5037149;28;20037;-67
2023/03/03 03:03:22;;;;;;;8.23;4.78;;;1.40;99.90;;;;;;5042199;28;20036;-67
2023/03/03 03:05:47;;;;;;;7.88;5.90;;;1.50;99.90;;;;;;5033202;28;20118;-68
2023/03/03 03:08:14;;;;;;;13.90;7.82;;;1.50;99.90;;;;;;5043542;28;20052;-67
2023/03/03 03:10:39;;;;;;;7.68;4.82;;;1.50;99.90;;;;;;5049468;28;20041;-68
2023/03/03 03:13:05;;;;;;;5.13;4.15;;;1.60;99.90;;;;;;5048053;28;20508;-69
2023/03/03 03:15:31;;;;;;;7.65;4.25;;;1.60;99.90;;;;;;5048848;28;21339;-68
2023/03/03 03:17:56;;;;;;;8.60;4.78;;;1.50;99.90;;;;;;5047894;28;20044;-68
2023/03/03 03:20:22;;;;;;;6.25;4.93;;;1.30;99.90;;;;;;5052474;28;20041;-67
2023/03/03 03:22:49;;;;;;;6.72;4.43;;;1.30;99.90;;;;;;5050579;28;20068;-67
2023/03/03 03:25:15;;;;;;;6.18;4.80;;;1.20;99.90;;;;;;5046504;28;20481;-67
2023/03/03 03:27:40;;;;;;;9.63;5.20;;;1.20;99.90;;;;;;5042398;28;20036;-67
2023/03/03 03:30:07;;;;;;;6.60;4.70;;;1.00;99.90;;;;;;5045190;28;20025;-67
2023/03/03 03:32:33;;;;;;;6.10;4.40;;;1.00;99.90;;;;;;5039410;28;20053;-68
2023/03/03 03:34:58;;;;;;;9.32;4.65;;;1.00;99.90;;;;;;5050913;28;20566;-68
2023/03/03 03:37:24;;;;;;;5.90;4.45;;;1.00;99.90;;;;;;5046715;28;20035;-68
2023/03/03 03:39:50;;;;;;;9.43;4.65;;;1.00;99.90;;;;;;5028422;28;20052;-67
2023/03/03 03:42:15;;;;;;;8.35;5.32;;;1.00;99.90;;;;;;5037449;28;20052;-67
2023/03/03 03:44:41;;;;;;;16.23;14.40;;;1.00;99.90;;;;;;5037437;28;20472;-68
2023/03/03 03:47:07;;;;;;;8.57;5.60;;;1.10;99.90;;;;;;5046653;28;20048;-67
2023/03/03 03:49:32;;;;;;;8.98;5.15;;;1.10;99.90;;;;;;5030551;28;20449;-67
2023/03/03 03:51:58;;;;;;;9.57;6.05;;;1.00;99.90;;;;;;5038155;28;20040;-67
2023/03/03 03:54:23;;;;;;;9.38;6.05;;;1.00;99.90;;;;;;5044890;28;20103;-67
2023/03/03 03:56:50;;;;;;;7.68;5.65;;;0.90;99.90;;;;;;5051096;28;20486;-82
2023/03/03 03:59:15;;;;;;;10.90;6.00;;;0.80;99.90;;;;;;5046445;28;20041;-83
2023/03/03 04:01:41;;;;;;;11.48;5.95;;;0.90;99.90;;;;;;5050871;28;20048;-84
2023/03/03 04:04:07;;;;;;;8.85;6.20;;;1.10;99.90;;;;;;5040437;28;20033;-84
2023/03/03 04:06:32;;;;;;;9.73;6.35;;;1.20;99.90;;;;;;5041735;28;20033;-82
2023/03/03 04:08:58;;;;;;;11.40;6.10;;;1.10;99.90;;;;;;5033456;28;20520;-84
2023/03/03 04:11:24;;;;;;;7.85;5.13;;;1.00;99.90;;;;;;5050743;28;20055;-83
2023/03/03 04:13:49;;;;;;;7.78;4.68;;;1.00;99.90;;;;;;5048649;28;20075;-83
2023/03/03 04:16:15;;;;;;;5.50;4.32;;;0.80;99.90;;;;;;5050218;28;20044;-83
2023/03/03 04:18:41;;;;;;;8.77;4.85;;;0.80;99.90;;;;;;5038126;28;20037;-84
2023/03/03 04:21:13;;;;;;;9.40;4.97;;;0.80;99.90;;;;;;5030676;28;20033;-83
2023/03/03 04:23:39;;;;;;;9.57;5.22;;;0.80;99.90;;;;;;5043635;28;20374;-83
2023/03/03 04:26:05;;;;;;;7.53;4.68;;;0.70;99.90;;;;;;5033970;28;20056;-83
2023/03/03 04:28:30;;;;;;;6.65;4.57;;;0.80;99.90;;;;;;5035775;28;20064;-82
2023/03/03 04:30:56;;;;;;;7.40;4.50;;;0.80;99.90;;;;;;5043909;28;20130;-83
2023/03/03 04:33:22;;;;;;;9.13;4.43;;;0.80;99.90;;;;;;5044375;28;20549;-83
2023/03/03 04:35:47;;;;;;;9.05;4.90;;;0.80;99.90;;;;;;5046012;28;20119;-83
2023/03/03 04:38:13;;;;;;;6.63;4.85;;;0.80;99.90;;;;;;5039038;28;20043;-84
2023/03/03 04:40:40;;;;;;;8.57;4.43;;;0.70;99.90;;;;;;5047125;28;20029;-83
2023/03/03 04:43:06;;;;;;;7.05;4.32;;;0.70;99.90;;;;;;5038827;28;20593;-84
2023/03/03 04:45:32;;;;;;;8.93;4.70;;;0.60;99.90;;;;;;5039561;28;20120;-83
2023/03/03 04:47:57;;;;;;;6.95;4.32;;;0.70;99.90;;;;;;5030499;28;20124;-83
2023/03/03 04:50:23;;;;;;;12.13;4.47;;;0.60;99.90;;;;;;5047752;28;20043;-82
2023/03/03 04:52:49;;;;;;;6.82;4.53;;;0.60;99.90;;;;;;5042087;28;20045;-67
2023/03/03 04:55:15;;;;;;;8.68;4.78;;;0.60;99.90;;;;;;5049144;28;20017;-67
2023/03/03 04:57:41;;;;;;;8.80;4.93;;;0.50;99.90;;;;;;5047919;28;20033;-67
2023/03/03 05:00:08;;;;;;;15.65;9.57;;;0.50;99.90;;;;;;5043421;28;20048;-66
2023/03/03 05:02:34;;;;;;;14.75;9.85;;;0.60;99.90;;;;;;5039981;28;20065;-67
2023/03/03 05:05:00;;;;;;;11.65;8.23;;;0.70;99.90;;;;;;5044398;28;20058;-68
2023/03/03 05:07:25;;;;;;;24.85;16.25;;;0.70;99.90;;;;;;5039501;28;20750;-67
2023/03/03 05:09:51;;;;;;;28.75;19.63;;;0.80;99.90;;;;;;5043817;28;20040;-68
2023/03/03 05:12:17;;;;;;;21.55;14.10;;;0.90;99.90;;;;;;5046867;28;20497;-67
2023/03/03 05:14:43;;;;;;;28.77;18.05;;;1.00;99.90;;;;;;5032487;28;20468;-67
2023/03/03 05:17:08;;;;;;;25.92;17.63;;;0.90;99.90;;;;;;5043500;28;20101;-67
2023/03/03 05:19:34;;;;;;;28.73;17.77;;;0.90;99.90;;;;;;5046421;28;20109;-67
2023/03/03 05:22:00;;;;;;;12.00;7.45;;;0.80;99.90;;;;;;5035132;28;20056;-67
2023/03/03 05:24:26;;;;;;;9.00;5.82;;;0.90;99.90;;;;;;5041012;28;20607;-67
2023/03/03 05:26:52;;;;;;;7.80;4.75;;;0.80;99.90;;;;;;5039603;28;20045;-67
2023/03/03 05:29:19;;;;;;;8.20;5.28;;;0.60;99.90;;;;;;5045460;28;20059;-83
2023/03/03 05:31:44;;;;;;;9.25;5.38;;;0.50;99.90;;;;;;5031059;28;20032;-82
2023/03/03 05:34:10;;;;;;;9.05;5.55;;;0.50;99.90;;;;;;5036324;28;20036;-83
2023/03/03 05:36:36;;;;;;;11.15;6.65;;;0.30;99.90;;;;;;5039405;28;20043;-81
2023/03/03 05:39:01;;;;;;;13.20;7.28;;;0.20;99.90;;;;;;5044495;28;20040;-81
2023/03/03 05:41:27;;;;;;;13.82;8.55;;;0.30;99.90;;;;;;5039380;28;20037;-81
2023/03/03 05:43:53;;;;;;;15.43;9.02;;;0.30;99.90;;;;;;5042453;28;20493;-81
2023/03/03 05:46:19;;;;;;;16.80;8.77;;;0.30;99.90;;;;;;5041395;28;20070;-82
2023/03/03 05:48:44;;;;;;;13.02;8.95;;;0.30;99.90;;;;;;5042751;28;20028;-80
2023/03/03 05:51:10;;;;;;;14.93;8.57;;;0.30;99.90;;;;;;5028896;28;20584;-81
2023/03/03 05:53:36;;;;;;;14.70;9.23;;;0.30;99.90;;;;;;5036272;28;20871;-82
2023/03/03 05:56:02;;;;;;;16.90;9.90;;;0.40;99.90;;;;;;5031462;28;20036;-82
2023/03/03 05:58:29;;;;;;;18.88;10.75;;;0.50;99.90;;;;;;5024840;28;20048;-69
2023/03/03 06:00:55;;;;;;;16.33;9.80;;;0.60;99.90;;;;;;5032777;28;20614;-67
2023/03/03 06:03:20;;;;;;;15.77;9.70;;;0.70;99.90;;;;;;5038369;28;20041;-68
2023/03/03 06:05:46;;;;;;;10.80;7.80;;;0.80;99.90;;;;;;5044748;28;21601;-67
2023/03/03 06:08:12;;;;;;;12.18;7.75;;;0.80;99.90;;;;;;5047760;28;20588;-68
2023/03/03 06:10:38;;;;;;;16.35;8.70;;;0.90;99.90;;;;;;5040566;28;20048;-69
2023/03/03 06:13:04;;;;;;;18.23;9.50;;;1.00;99.90;;;;;;5040185;28;20115;-74
2023/03/03 06:15:29;;;;;;;16.55;8.70;;;1.10;99.90;;;;;;5042634;28;20758;-73
2023/03/03 06:17:55;;;;;;;17.77;9.38;;;1.30;99.90;;;;;;5045957;28;20087;-73
2023/03/03 06:20:20;;;;;;;13.43;8.45;;;1.40;99.90;;;;;;5043484;28;20405;-75
2023/03/03 06:22:46;;;;;;;23.45;9.85;;;1.50;99.90;;;;;;5044669;28;20966;-75
2023/03/03 06:25:12;;;;;;;19.25;10.52;;;1.50;99.90;;;;;;5045367;28;20123;-77
2023/03/03 06:27:37;;;;;;;18.73;10.95;;;1.60;99.90;;;;;;5035099;28;20726;-66
2023/03/03 06:30:04;;;;;;;27.02;14.38;;;1.70;99.90;;;;;;5029884;28;20041;-65
2023/03/03 06:32:30;;;;;;;23.67;15.32;;;1.70;99.90;;;;;;5038444;28;20056;-65
2023/03/03 06:34:55;;;;;;;17.05;11.15;;;1.80;99.90;;;;;;5022145;28;20135;-65
2023/03/03 06:37:21;;;;;;;18.08;11.45;;;1.80;99.90;;;;;;5039514;28;20051;-64
2023/03/03 06:39:46;;;;;;;25.75;12.40;;;1.80;99.90;;;;;;5043626;28;20123;-64
2023/03/03 06:42:12;;;;;;;24.48;15.85;;;1.80;99.90;;;;;;5041867;28;20476;-65
2023/03/03 06:44:38;;;;;;;31.35;19.60;;;1.80;99.90;;;;;;5045110;28;20169;-65
2023/03/03 06:47:04;;;;;;;34.58;20.15;;;1.90;99.90;;;;;;5042870;28;20571;-64
2023/03/03 06:49:30;;;;;;;29.75;20.23;;;2.00;99.90;;;;;;5042857;28;20036;-65
2023/03/03 06:51:58;;;;;;;30.27;19.30;;;2.10;99.90;;;;;;5049793;28;20048;-65
2023/03/03 06:54:27;;;;;;;28.95;19.63;;;2.20;99.90;;;;;;5051968;28;23445;-65
2023/03/03 06:56:59;;;;;;;26.60;17.48;;;2.30;99.90;;;;;;5053296;28;20082;-65
2023/03/03 06:59:26;;;;;;;20.30;14.63;;;2.50;99.90;;;;;;5056168;28;20393;-65
2023/03/03 07:01:52;;;;;;;22.08;15.77;;;2.60;99.90;;;;;;5024639;28;20107;-65
2023/03/03 07:04:18;;;;;;;23.45;15.32;;;2.70;99.90;;;;;;5031973;28;20411;-64
2023/03/03 07:06:44;;;;;;;21.20;14.27;;;2.90;99.90;;;;;;5049353;28;20043;-65
2023/03/03 07:09:22;;;;;;;20.08;13.30;;;3.10;99.90;;;;;;5046065;28;20622;-64
2023/03/03 07:11:49;;;;;;;19.60;12.57;;;3.30;99.90;;;;;;5047886;28;20036;-66
2023/03/03 07:14:18;;;;;;;20.02;13.02;;;3.40;99.90;;;;;;5035755;28;20037;-65
2023/03/03 07:16:44;;;;;;;23.90;15.90;;;3.60;99.90;;;;;;5040401;28;20029;-66
2023/03/03 07:19:34;;;;;;;19.45;13.13;;;3.80;99.90;;;;;;5038801;28;20367;-79
2023/03/03 07:22:22;;;;;;;20.73;12.75;;;3.90;99.90;;;;;;5052717;28;20028;-77
2023/03/03 07:24:53;;;;;;;20.23;13.07;;;4.20;99.90;;;;;;5037715;28;20045;-79
2023/03/03 07:27:29;;;;;;;24.70;13.07;;;4.40;99.90;;;;;;5049014;28;20032;-78
2023/03/03 07:30:23;;;;;;;23.25;12.80;;;4.70;99.90;;;;;;5045644;28;20633;-78
2023/03/03 07:32:52;;;;;;;18.13;12.45;;;4.90;99.90;;;;;;5039017;28;20173;-76
2023/03/03 07:35:24;;;;;;;18.80;11.65;;;5.10;99.90;;;;;;5045716;28;20116;-76
2023/03/03 07:37:50;;;;;;;;;;;5.40;99.90;;;;;;5035930;28;20041;-66
2023/03/03 07:40:50;;;;;;;19.30;11.13;;;5.60;99.90;;;;;;5031209;28;19939;-65
2023/03/03 07:43:39;;;;;;;14.65;10.75;;;5.80;99.90;;;;;;5027444;28;20147;-66
2023/03/03 07:46:13;;;;;;;18.00;12.80;;;5.90;99.90;;;;;;5044510;28;20060;-65
2023/03/03 07:48:41;;;;;;;16.95;12.55;;;6.00;99.90;;;;;;5032111;28;20209;-65
2023/03/03 07:51:40;;;;;;;16.10;12.07;;;6.20;99.90;;;;;;5034965;28;20032;-66
2023/03/03 07:54:41;;;;;;;17.88;12.10;;;6.30;99.90;;;;;;5031508;28;20275;-65
2023/03/03 07:57:33;;;;;;;18.05;13.20;;;6.40;99.90;;;;;;5037672;28;20044;-65
2023/03/03 08:00:15;;;;;;;16.60;11.52;;;6.60;99.90;;;;;;5040295;28;20052;-66
2023/03/03 08:02:43;;;;;;;20.45;13.98;;;6.70;99.90;;;;;;5022665;28;20378;-66
2023/03/03 08:05:34;;;;;;;24.50;16.25;;;7.00;99.90;;;;;;5038299;28;20060;-66
2023/03/03 08:08:09;;;;;;;14.43;11.07;;;7.30;99.90;;;;;;5027535;28;20978;-66
2023/03/03 08:10:49;;;;;;;18.27;12.07;;;7.50;99.90;;;;;;5044739;28;20063;-65
2023/03/03 08:13:17;;;;;;;16.77;11.52;;;7.70;99.90;;;;;;5044039;28;20109;-66
2023/03/03 08:15:45;;;;;;;17.70;13.45;;;7.80;99.90;;;;;;5029668;28;20119;-65
2023/03/03 08:18:27;;;;;;;14.23;10.57;;;8.00;99.90;;;;;;5046610;28;20041;-65
2023/03/03 08:20:58;;;;;;;17.23;10.02;;;8.30;99.90;;;;;;5043936;28;20051;-66
2023/03/03 08:23:24;;;;;;;14.82;10.35;;;8.60;99.90;;;;;;5049181;28;20509;-66
2023/03/03 08:25:51;;;;;;;13.20;9.25;;;8.90;99.90;;;;;;5046589;28;20033;-67
2023/03/03 08:28:17;;;;;;;13.90;10.75;;;9.00;99.90;;;;;;5037404;28;20032;-66
2023/03/03 08:30:44;;;;;;;13.27;10.32;;;9.20;99.90;;;;;;5030860;28;20144;-66
2023/03/03 08:33:10;;;;;;;14.40;10.93;;;9.30;99.90;;;;;;5045953;28;20055;-77
2023/03/03 08:35:36;;;;;;;14.13;11.15;;;9.40;99.90;;;;;;5039793;28;20040;-76
2023/03/03 08:38:02;;;;;;;74.88;50.78;;;9.60;99.90;;;;;;5042442;28;20045;-76
2023/03/03 08:40:28;;;;;;;83.28;55.05;;;9.70;99.90;;;;;;5046769;28;20032;-77
2023/03/03 08:42:54;;;;;;;19.63;16.25;;;9.70;99.90;;;;;;5046035;28;20041;-77
2023/03/03 08:45:20;;;;;;;22.80;15.98;;;9.80;99.90;;;;;;5033011;28;20505;-78
2023/03/03 08:47:46;;;;;;;120.80;85.47;;;9.90;99.90;;;;;;5045005;28;20060;-78
2023/03/03 08:50:13;;;;;;;24.08;17.98;;;9.90;99.90;;;;;;5039311;28;20043;-67
2023/03/03 08:52:40;;;;;;;62.60;43.60;;;9.90;99.90;;;;;;5048561;28;20059;-65
2023/03/03 08:55:06;;;;;;;120.18;85.47;;;9.80;99.90;;;;;;5038973;28;20044;-64
2023/03/03 08:57:32;;;;;;;87.78;62.97;;;9.80;99.90;;;;;;5048873;28;20076;-64
2023/03/03 08:59:57;;;;;;;79.35;55.33;;;9.80;99.90;;;;;;5034887;28;20450;-64
2023/03/03 09:02:23;;;;;;;22.40;17.83;;;9.70;99.90;;;;;;5042847;28;20044;-64
2023/03/03 09:04:48;;;;;;;30.67;21.60;;;9.70;99.90;;;;;;5043607;28;20433;-64
2023/03/03 09:07:14;;;;;;;15.00;12.05;;;9.80;99.90;;;;;;5024685;28;20063;-64
2023/03/03 09:09:40;;;;;;;16.02;10.70;;;9.90;99.90;;;;;;5039569;28;20064;-65
2023/03/03 09:12:26;;;;;;;13.82;10.52;;;10.00;99.90;;;;;;5026629;28;20044;-64
2023/03/03 09:14:51;;;;;;;16.45;10.60;;;10.10;99.90;;;;;;5037659;28;20056;-65
2023/03/03 09:17:32;;;;;;;16.05;10.95;;;10.30;99.90;;;;;;5031096;28;20557;-65
2023/03/03 09:20:32;;;;;;;13.73;10.48;;;10.40;99.90;;;;;;5036326;28;20041;-64
2023/03/03 09:23:15;;;;;;;12.32;9.73;;;10.40;99.90;;;;;;5037922;28;20056;-65
2023/03/03 09:25:41;;;;;;;23.02;10.68;;;10.40;99.90;;;;;;5029468;28;20041;-66
2023/03/03 09:28:28;;;;;;;12.70;9.73;;;10.50;99.90;;;;;;5033327;28;20044;-66
2023/03/03 09:30:57;;;;;;;15.32;10.77;;;10.80;99.90;;;;;;5036517;28;20032;-66
2023/03/03 09:33:42;;;;;;;24.55;16.75;;;10.90;99.90;;;;;;5039269;28;20473;-66
2023/03/03 09:36:35;;;;;;;63.72;44.78;;;11.10;99.90;;;;;;5039823;28;21977;-66
2023/03/03 09:39:17;;;;;;;11.10;9.50;;;11.20;99.90;;;;;;5020292;28;20497;-66
2023/03/03 09:42:01;;;;;;;10.77;7.85;;;11.40;99.90;;;;;;5046033;28;20094;-66
2023/03/03 09:44:35;;;;;;;9.70;7.38;;;11.40;99.90;;;;;;5038614;28;20042;-65
2023/03/03 09:47:04;;;;;;;10.85;7.65;;;11.40;99.90;;;;;;5044381;28;20049;-76
2023/03/03 09:49:48;;;;;;;9.60;6.85;;;11.40;99.90;;;;;;5038867;28;20433;-77
2023/03/03 09:52:24;;;;;;;10.30;7.22;;;11.50;99.90;;;;;;5044627;28;20163;-78
2023/03/03 09:55:18;;;;;;;11.02;7.38;;;11.50;99.90;;;;;;5049971;28;20044;-76
2023/03/03 09:57:57;;;;;;;16.13;7.78;;;11.70;99.90;;;;;;5046980;28;20032;-76
2023/03/03 10:00:37;;;;;;;11.05;7.85;;;11.60;99.90;;;;;;5052043;28;20041;-75
2023/03/03 10:03:26;;;;;;;18.27;14.38;;;11.70;99.90;;;;;;5048832;28;20113;-76
2023/03/03 10:06:03;;;;;;;11.18;7.05;;;11.70;99.90;;;;;;5049094;28;20032;-65
2023/03/03 10:08:35;;;;;;;10.77;7.00;;;11.70;99.90;;;;;;5044358;28;20045;-65
2023/03/03 10:11:01;;;;;;;9.68;7.00;;;11.80;99.90;;;;;;5049655;28;20040;-65
2023/03/03 10:13:36;;;;;;;8.63;6.93;;;11.90;99.90;;;;;;5056139;28;20045;-65
2023/03/03 10:16:17;;;;;;;7.20;6.05;;;12.00;99.90;;;;;;5049527;28;20037;-65
2023/03/03 10:18:59;;;;;;;8.32;6.45;;;12.10;99.00;;;;;;5059502;28;20135;-65
2023/03/03 10:21:43;;;;;;;;;;;12.10;98.30;;;;;;5050153;28;20048;-65
2023/03/03 10:24:36;;;;;;;17.77;13.68;;;12.20;98.40;;;;;;5047436;28;19978;-77
2023/03/03 10:27:30;;;;;;;18.17;12.40;;;12.30;97.70;;;;;;5047782;28;20044;-76
2023/03/03 10:30:18;;;;;;;9.70;7.65;;;12.60;96.30;;;;;;5052241;28;20043;-73
2023/03/03 10:32:51;;;;;;;7.82;5.97;;;12.70;96.20;;;;;;5042436;28;21245;-77
2023/03/03 10:35:58;;;;;;;7.85;6.10;;;12.70;95.70;;;;;;5046835;28;20443;-76
2023/03/03 10:38:42;;;;;;;10.23;6.32;;;12.70;94.20;;;;;;5051443;28;20117;-76
2023/03/03 10:41:30;;;;;;;11.27;8.07;;;12.70;95.50;;;;;;5052967;28;20218;-66
2023/03/03 10:44:20;;;;;;;12.80;9.23;;;12.60;97.70;;;;;;5043892;28;20438;-66
2023/03/03 10:46:57;;;;;;;13.63;9.82;;;12.60;99.60;;;;;;5053574;28;20500;-65
2023/03/03 10:49:50;;;;;;;12.27;9.43;;;12.50;99.90;;;;;;5055538;28;20572;-65
2023/03/03 10:52:43;;;;;;;14.32;10.52;;;12.50;99.50;;;;;;5049426;28;20114;-66
2023/03/03 10:55:17;;;;;;;14.32;9.85;;;12.70;99.50;;;;;;5057486;28;20047;-65
2023/03/03 10:58:08;;;;;;;13.60;7.32;;;12.80;98.20;;;;;;5047513;28;20037;-66
2023/03/03 11:00:57;;;;;;;9.05;7.22;;;12.80;96.50;;;;;;5052068;28;20448;-65
2023/03/03 11:03:44;;;;;;;11.25;8.43;;;12.80;96.10;;;;;;5052520;28;20031;-65
2023/03/03 11:06:27;;;;;;;12.80;10.00;;;12.80;96.70;;;;;;5050346;28;20340;-65
2023/03/03 11:09:01;;;;;;;12.73;9.43;;;12.80;97.00;;;;;;5045781;28;20056;-65
2023/03/03 11:11:40;;;;;;;12.15;8.13;;;12.70;96.90;;;;;;5032753;28;20084;-65
2023/03/03 11:14:32;;;;;;;9.82;8.00;;;12.80;97.00;;;;;;5046146;28;20049;-64
2023/03/03 11:17:10;;;;;;;12.68;8.60;;;12.90;95.80;;;;;;5045215;28;20068;-64
2023/03/03 11:19:36;;;;;;;9.88;7.78;;;13.00;95.50;;;;;;5043613;28;20036;-65
2023/03/03 11:22:14;;;;;;;10.80;8.65;;;12.90;95.10;;;;;;5048445;28;20529;-65
2023/03/03 11:25:04;;;;;;;9.63;8.05;;;13.00;95.00;;;;;;5053915;28;20128;-64
2023/03/03 11:28:01;;;;;;;10.45;8.43;;;13.00;93.80;;;;;;5040757;28;20048;-65
2023/03/03 11:30:45;;;;;;;10.38;6.93;;;13.10;92.70;;;;;;5028779;28;20629;-65
2023/03/03 11:33:34;;;;;;;9.68;7.22;;;13.20;92.80;;;;;;5052501;28;20052;-65
2023/03/03 11:36:36;;;;;;;10.65;7.25;;;13.30;92.80;;;;;;5038787;28;20103;-75
2023/03/03 11:39:14;;;;;;;9.95;7.22;;;13.20;92.30;;;;;;5046559;28;20091;-75
2023/03/03 11:41:57;;;;;;;11.80;7.10;;;13.20;91.70;;;;;;5056499;28;20037;-73
2023/03/03 11:44:44;;;;;;;16.85;6.70;;;13.30;90.30;;;;;;5056473;28;20041;-73
2023/03/03 11:47:26;;;;;;;9.40;6.93;;;13.20;90.30;;;;;;5047182;28;20497;-73
2023/03/03 11:49:58;;;;;;;9.95;6.72;;;13.20;85.80;;;;;;5057594;28;20036;-73
2023/03/03 11:52:46;;;;;;;9.25;7.38;;;13.00;86.20;;;;;;5043510;28;20037;-73
2023/03/03 11:55:14;;;;;;;11.48;7.75;;;12.80;86.00;;;;;;5053449;28;20184;-75
2023/03/03 11:57:39;;;;;;;9.63;7.75;;;12.60;85.10;;;;;;5057716;28;20040;-65
2023/03/03 12:00:24;;;;;;;9.60;7.43;;;12.40;89.70;;;;;;5061549;28;20037;-65
2023/03/03 12:03:21;;;;;;;9.55;7.43;;;12.40;87.40;;;;;;5043584;28;20037;-66
2023/03/03 12:06:01;;;;;;;11.32;8.00;;;12.30;87.00;;;;;;5049365;28;20040;-66
2023/03/03 12:08:26;;;;;;;11.02;7.90;;;12.20;87.80;;;;;;5053241;28;20111;-66
2023/03/03 12:10:58;;;;;;;10.85;7.53;;;12.10;87.30;;;;;;5063984;28;20067;-67
2023/03/03 12:13:36;;;;;;;9.63;7.93;;;12.10;88.60;;;;;;5057458;28;20084;-66
2023/03/03 12:16:10;;;;;;;10.77;7.78;;;12.20;88.40;;;;;;5055945;28;20036;-68
2023/03/03 12:18:49;;;;;;;10.77;7.97;;;12.10;85.50;;;;;;5043360;28;20045;-66
2023/03/03 12:21:26;;;;;;;10.20;7.65;;;12.10;87.40;;;;;;5033024;28;20037;-73
2023/03/03 12:24:01;;;;;;;9.88;7.57;;;12.10;90.60;;;;;;5041365;28;20049;-76
2023/03/03 12:26:38;;;;;;;8.93;7.22;;;12.30;86.90;;;;;;5037264;28;20134;-76
2023/03/03 12:29:33;;;;;;;10.05;7.80;;;12.30;86.20;;;;;;5047570;28;20064;-79
2023/03/03 12:32:09;;;;;;;11.05;7.68;;;12.30;86.70;;;;;;5039699;28;20223;-77
2023/03/03 12:34:49;;;;;;;11.13;8.88;;;12.30;85.40;;;;;;5032886;28;20045;-76
2023/03/03 12:37:46;;;;;;;11.43;8.68;;;12.20;87.50;;;;;;5031762;28;20096;-74
2023/03/03 12:40:33;;;;;;;13.13;9.88;;;12.20;89.90;;;;;;5030937;28;20525;-79
2023/03/03 12:43:17;;;;;;;12.35;9.73;;;12.00;90.00;;;;;;5049233;28;20039;-78
2023/03/03 12:46:06;;;;;;;14.93;10.98;;;12.10;90.40;;;;;;5041524;28;20436;-77
2023/03/03 12:48:58;;;;;;;17.45;11.32;;;12.10;89.70;;;;;;5040550;28;20029;-78
2023/03/03 12:51:29;;;;;;;14.15;10.25;;;12.10;90.10;;;;;;5020960;28;21572;-78
2023/03/03 12:54:23;;;;;;;14.35;10.85;;;12.10;90.70;;;;;;5038373;28;20083;-75
2023/03/03 12:57:03;;;;;;;12.45;10.25;;;12.20;90.90;;;;;;5032135;28;20621;-79
2023/03/03 12:59:39;;;;;;;26.17;9.63;;;12.20;90.60;;;;;;5049233;28;20036;-79
2023/03/03 13:02:39;;;;;;;11.18;8.88;;;12.20;90.30;;;;;;5019946;28;20043;-79
2023/03/03 13:05:23;;;;;;;15.43;8.93;;;12.30;87.30;;;;;;5036731;28;20777;-74
2023/03/03 13:08:07;;;;;;;14.00;8.43;;;12.40;86.40;;;;;;5040413;28;20060;-76
2023/03/03 13:10:45;;;;;;;13.05;8.15;;;12.40;85.40;;;;;;5010347;28;20048;-74
2023/03/03 13:13:33;;;;;;;12.52;8.95;;;12.40;83.20;;;;;;5034872;28;20040;-74
2023/03/03 13:16:07;;;;;;;12.30;8.73;;;12.30;84.60;;;;;;5035389;28;20660;-75